sensor_id;sensor_type;location;lat;lon;timestamp;temperature;humidity
5697;DHT22;2873;50.966;7.210;2023-03-12T00:00:40;2.90;99.90
5697;DHT22;2873;50.966;7.210;2023-03-12T00:03:06;3.00;99.90
5697;DHT22;2873;50.966;7.210;2023-03-12T00:05:32;3.00;99.90
5697;DHT22;2873;50.966;7.210;2023-03-12T00:07:58;3.00;99.90
5697;DHT22;2873;50.966;7.210;2023-03-12T00:10:27;3.00;99.90
5697;DHT22;2873;50.966;7.210;2023-03-12T00:12:52;3.00;99.90
5697;DHT22;2873;50.966;7.210;2023-03-12T00:15:18;3.00;99.90
5697;DHT22;2873;50.966;7.210;2023-03-12T00:17:44;2.90;99.90
5697;DHT22;2873;50.966;7.210;2023-03-12T00:20:10;3.00;99.90
5697;DHT22;2873;50.966;7.210;2023-03-12T00:22:36;3.00;99.90
5697;DHT22;2873;50.966;7.210;2023-03-12T00:25:02;3.00;99.90
5697;DHT22;2873;50.966;7.210;2023-03-12T00:27:28;3.00;99.90
5697;DHT22;2873;50.966;7.210;2023-03-12T00:29:54;3.00;99.90
5697;DHT22;2873;50.966;7.210;2023-03-12T00:32:19;3.00;99.90
5697;DHT22;2873;50.966;7.210;2023-03-12T00:34:53;3.10;99.90
5697;DHT22;2873;50.966;7.210;2023-03-12T00:37:19;3.10;99.90
5697;DHT22;2873;50.966;7.210;2023-03-12T00:39:45;3.00;99.90
5697;DHT22;2873;50.966;7.210;2023-03-12T00:42:10;3.10;99.90
5697;DHT22;2873;50.966;7.210;2023-03-12T00:44:36;3.10;99.90
5697;DHT22;2873;50.966;7.210;2023-03-12T00:47:01;3.00;99.90
5697;DHT22;2873;50.966;7.210;2023-03-12T00:49:27;3.10;99.90
5697;DHT22;2873;50.966;7.210;2023-03-12T00:51:52;3.10;99.90
5697;DHT22;2873;50.966;7.210;2023-03-12T00:54:19;3.20;99.90
5697;DHT22;2873;50.966;7.210;2023-03-12T00:56:45;3.20;99.90
5697;DHT22;2873;50.966;7.210;2023-03-12T00:59:14;3.20;99.90
5697;DHT22;2873;50.966;7.210;2023-03-12T01:01:40;3.20;99.90
5697;DHT22;2873;50.966;7.210;2023-03-12T01:04:06;3.30;99.90
5697;DHT22;2873;50.966;7.210;2023-03-12T01:06:32;3.30;99.90
5697;DHT22;2873;50.966;7.210;2023-03-12T01:08:57;3.30;99.90
5697;DHT22;2873;50.966;7.210;2023-03-12T01:11:24;3.30;99.90
5697;DHT22;2873;50.966;7.210;2023-03-12T01:13:49;3.30;99.90
5697;DHT22;2873;50.966;7.210;2023-03-12T01:16:15;3.40;99.90
5697;DHT22;2873;50.966;7.210;2023-03-12T01:18:41;3.40;99.90
5697;DHT22;2873;50.966;7.210;2023-03-12T01:21:07;3.40;99.90
5697;DHT22;2873;50.966;7.210;2023-03-12T01:23:32;3.40;99.90
5697;DHT22;2873;50.966;7.210;2023-03-12T01:25:58;3.50;99.90
5697;DHT22;2873;50.966;7.210;2023-03-12T01:28:24;3.50;99.90
5697;DHT22;2873;50.966;7.210;2023-03-12T01:30:50;3.60;99.90
5697;DHT22;2873;50.966;7.210;2023-03-12T01:33:16;3.50;99.90
5697;DHT22;2873;50.966;7.210;2023-03-12T01:35:42;3.50;99.90
5697;DHT22;2873;50.966;7.210;2023-03-12T01:38:12;3.60;99.90
5697;DHT22;2873;50.966;7.210;2023-03-12T01:40:40;3.60;99.90
5697;DHT22;2873;50.966;7.210;2023-03-12T01:43:32;3.60;99.90
5697;DHT22;2873;50.966;7.210;2023-03-12T01:48:31;3.50;99.90
5697;DHT22;2873;50.966;7.210;2023-03-12T01:50:58;3.60;99.90
5697;DHT22;2873;50.966;7.210;2023-03-12T01:53:24;3.60;99.90
5697;DHT22;2873;50.966;7.210;2023-03-12T01:55:51;3.50;99.90
5697;DHT22;2873;50.966;7.210;2023-03-12T01:58:16;3.50;99.90
5697;DHT22;2873;50.966;7.210;2023-03-12T02:00:42;3.50;99.90
5697;DHT22;2873;50.966;7.210;2023-03-12T02:03:09;3.50;99.90
5697;DHT22;2873;50.966;7.210;2023-03-12T02:05:45;3.50;99.90
5697;DHT22;2873;50.966;7.210;2023-03-12T02:08:13;3.50;99.90
5697;DHT22;2873;50.966;7.210;2023-03-12T02:10:39;3.40;99.90
5697;DHT22;2873;50.966;7.210;2023-03-12T02:13:05;3.40;99.90
5697;DHT22;2873;50.966;7.210;2023-03-12T02:15:32;3.30;99.90
5697;DHT22;2873;50.966;7.210;2023-03-12T02:17:57;3.40;99.90
5697;DHT22;2873;50.966;7.210;2023-03-12T02:21:14;3.30;99.90
5697;DHT22;2873;50.966;7.210;2023-03-12T02:25:51;3.20;99.90
5697;DHT22;2873;50.966;7.210;2023-03-12T02:28:20;3.20;99.90
5697;DHT22;2873;50.966;7.210;2023-03-12T02:30:49;3.20;99.90
5697;DHT22;2873;50.966;7.210;2023-03-12T02:33:15;3.20;99.90
5697;DHT22;2873;50.966;7.210;2023-03-12T02:35:41;3.20;99.90
5697;DHT22;2873;50.966;7.210;2023-03-12T02:38:44;3.20;99.90
5697;DHT22;2873;50.966;7.210;2023-03-12T02:41:33;3.20;99.90
5697;DHT22;2873;50.966;7.210;2023-03-12T02:44:04;3.10;99.90
5697;DHT22;2873;50.966;7.210;2023-03-12T02:46:34;3.10;99.90
5697;DHT22;2873;50.966;7.210;2023-03-12T02:49:01;3.10;99.90
5697;DHT22;2873;50.966;7.210;2023-03-12T02:51:26;3.10;99.90
5697;DHT22;2873;50.966;7.210;2023-03-12T02:53:52;3.10;99.90
5697;DHT22;2873;50.966;7.210;2023-03-12T02:56:23;3.10;99.90
5697;DHT22;2873;50.966;7.210;2023-03-12T02:58:50;3.10;99.90
5697;DHT22;2873;50.966;7.210;2023-03-12T03:01:16;3.00;99.90
5697;DHT22;2873;50.966;7.210;2023-03-12T03:03:42;3.10;99.90
5697;DHT22;2873;50.966;7.210;2023-03-12T03:06:08;3.20;99.90
5697;DHT22;2873;50.966;7.210;2023-03-12T03:08:33;3.20;99.90
5697;DHT22;2873;50.966;7.210;2023-03-12T03:10:59;3.20;99.90
5697;DHT22;2873;50.966;7.210;2023-03-12T03:13:27;3.30;99.90
5697;DHT22;2873;50.966;7.210;2023-03-12T03:15:53;3.30;99.90
5697;DHT22;2873;50.966;7.210;2023-03-12T03:18:22;3.30;99.90
5697;DHT22;2873;50.966;7.210;2023-03-12T03:20:54;3.30;99.90
5697;DHT22;2873;50.966;7.210;2023-03-12T03:23:20;3.30;99.90
5697;DHT22;2873;50.966;7.210;2023-03-12T03:25:46;3.30;99.90
5697;DHT22;2873;50.966;7.210;2023-03-12T03:28:11;3.30;99.90
5697;DHT22;2873;50.966;7.210;2023-03-12T03:30:37;3.30;99.90
5697;DHT22;2873;50.966;7.210;2023-03-12T03:33:03;3.30;99.90
5697;DHT22;2873;50.966;7.210;2023-03-12T03:35:28;3.30;99.90
5697;DHT22;2873;50.966;7.210;2023-03-12T03:37:54;3.30;99.90
5697;DHT22;2873;50.966;7.210;2023-03-12T03:40:20;3.20;99.90
5697;DHT22;2873;50.966;7.210;2023-03-12T03:42:45;3.30;99.90
5697;DHT22;2873;50.966;7.210;2023-03-12T03:45:11;3.30;99.90
5697;DHT22;2873;50.966;7.210;2023-03-12T03:47:36;3.30;99.90
5697;DHT22;2873;50.966;7.210;2023-03-12T03:50:04;3.30;99.90
5697;DHT22;2873;50.966;7.210;2023-03-12T03:52:30;3.30;99.90
5697;DHT22;2873;50.966;7.210;2023-03-12T03:54:57;3.30;99.90
5697;DHT22;2873;50.966;7.210;2023-03-12T03:57:24;3.30;99.90
5697;DHT22;2873;50.966;7.210;2023-03-12T03:59:49;3.30;99.90
5697;DHT22;2873;50.966;7.210;2023-03-12T04:02:15;3.30;99.90
5697;DHT22;2873;50.966;7.210;2023-03-12T04:04:40;3.20;99.90
5697;DHT22;2873;50.966;7.210;2023-03-12T04:07:06;3.30;99.90
5697;DHT22;2873;50.966;7.210;2023-03-12T04:09:32;3.30;99.90
5697;DHT22;2873;50.966;7.210;2023-03-12T04:11:57;3.40;99.90
5697;DHT22;2873;50.966;7.210;2023-03-12T04:14:23;3.40;99.90
5697;DHT22;2873;50.966;7.210;2023-03-12T04:16:48;3.40;99.90
5697;DHT22;2873;50.966;7.210;2023-03-12T04:19:14;3.40;99.90
5697;DHT22;2873;50.966;7.210;2023-03-12T04:21:39;3.40;99.90
5697;DHT22;2873;50.966;7.210;2023-03-12T04:24:06;3.40;99.90
5697;DHT22;2873;50.966;7.210;2023-03-12T04:26:32;3.40;99.90
5697;DHT22;2873;50.966;7.210;2023-03-12T04:28:59;3.50;99.90
5697;DHT22;2873;50.966;7.210;2023-03-12T04:31:25;3.40;99.90
5697;DHT22;2873;50.966;7.210;2023-03-12T04:33:50;3.40;99.90
5697;DHT22;2873;50.966;7.210;2023-03-12T04:36:16;3.40;99.90
5697;DHT22;2873;50.966;7.210;2023-03-12T04:38:42;3.40;99.90
5697;DHT22;2873;50.966;7.210;2023-03-12T04:41:12;3.50;99.90
5697;DHT22;2873;50.966;7.210;2023-03-12T04:43:38;3.40;99.90
5697;DHT22;2873;50.966;7.210;2023-03-12T04:46:05;3.40;99.90
5697;DHT22;2873;50.966;7.210;2023-03-12T04:48:31;3.40;99.90
5697;DHT22;2873;50.966;7.210;2023-03-12T04:50:56;3.40;99.90
5697;DHT22;2873;50.966;7.210;2023-03-12T04:53:23;3.40;99.90
5697;DHT22;2873;50.966;7.210;2023-03-12T04:55:49;3.40;99.90
5697;DHT22;2873;50.966;7.210;2023-03-12T04:58:15;3.40;99.90
5697;DHT22;2873;50.966;7.210;2023-03-12T05:00:41;3.40;99.90
5697;DHT22;2873;50.966;7.210;2023-03-12T05:03:06;3.40;99.90
5697;DHT22;2873;50.966;7.210;2023-03-12T05:05:32;3.40;99.90
5697;DHT22;2873;50.966;7.210;2023-03-12T05:07:58;3.40;99.90
5697;DHT22;2873;50.966;7.210;2023-03-12T05:10:24;3.40;99.90
5697;DHT22;2873;50.966;7.210;2023-03-12T05:12:49;3.40;99.90
5697;DHT22;2873;50.966;7.210;2023-03-12T05:15:15;3.40;99.90
5697;DHT22;2873;50.966;7.210;2023-03-12T05:17:42;3.40;99.90
5697;DHT22;2873;50.966;7.210;2023-03-12T05:20:09;3.30;99.90
5697;DHT22;2873;50.966;7.210;2023-03-12T05:22:34;3.30;99.90
5697;DHT22;2873;50.966;7.210;2023-03-12T05:25:00;3.40;99.90
5697;DHT22;2873;50.966;7.210;2023-03-12T05:27:25;3.30;99.90
5697;DHT22;2873;50.966;7.210;2023-03-12T05:29:51;3.20;99.90
5697;DHT22;2873;50.966;7.210;2023-03-12T05:32:17;3.10;99.90
5697;DHT22;2873;50.966;7.210;2023-03-12T05:34:43;3.10;99.90
5697;DHT22;2873;50.966;7.210;2023-03-12T05:37:08;3.00;99.90
5697;DHT22;2873;50.966;7.210;2023-03-12T05:39:34;2.80;99.90
5697;DHT22;2873;50.966;7.210;2023-03-12T05:42:00;2.90;99.90
5697;DHT22;2873;50.966;7.210;2023-03-12T05:44:26;2.90;99.90
5697;DHT22;2873;50.966;7.210;2023-03-12T05:46:52;2.90;99.90
5697;DHT22;2873;50.966;7.210;2023-03-12T05:49:19;2.80;99.90
5697;DHT22;2873;50.966;7.210;2023-03-12T05:51:46;2.70;99.90
5697;DHT22;2873;50.966;7.210;2023-03-12T05:54:13;2.70;99.90
5697;DHT22;2873;50.966;7.210;2023-03-12T05:56:38;2.70;99.90
5697;DHT22;2873;50.966;7.210;2023-03-12T05:59:04;2.70;99.90
5697;DHT22;2873;50.966;7.210;2023-03-12T06:01:31;2.60;99.90
5697;DHT22;2873;50.966;7.210;2023-03-12T06:03:57;2.70;99.90
5697;DHT22;2873;50.966;7.210;2023-03-12T06:06:23;2.70;99.90
5697;DHT22;2873;50.966;7.210;2023-03-12T06:08:50;2.70;99.90
5697;DHT22;2873;50.966;7.210;2023-03-12T06:11:16;2.60;99.90
5697;DHT22;2873;50.966;7.210;2023-03-12T06:13:42;2.60;99.90
5697;DHT22;2873;50.966;7.210;2023-03-12T06:16:11;2.50;99.90
5697;DHT22;2873;50.966;7.210;2023-03-12T06:18:39;2.50;99.90
5697;DHT22;2873;50.966;7.210;2023-03-12T06:23:40;2.50;99.90
5697;DHT22;2873;50.966;7.210;2023-03-12T06:26:08;2.50;99.90
5697;DHT22;2873;50.966;7.210;2023-03-12T06:28:34;2.60;99.90
5697;DHT22;2873;50.966;7.210;2023-03-12T06:30:59;2.50;99.90
5697;DHT22;2873;50.966;7.210;2023-03-12T06:33:25;2.50;99.90
5697;DHT22;2873;50.966;7.210;2023-03-12T06:35:55;2.50;99.90
5697;DHT22;2873;50.966;7.210;2023-03-12T06:38:21;2.50;99.90
5697;DHT22;2873;50.966;7.210;2023-03-12T06:41:08;2.50;99.90
5697;DHT22;2873;50.966;7.210;2023-03-12T06:43:36;2.60;99.90
5697;DHT22;2873;50.966;7.210;2023-03-12T06:46:03;2.60;99.90
5697;DHT22;2873;50.966;7.210;2023-03-12T06:48:30;2.60;99.90
5697;DHT22;2873;50.966;7.210;2023-03-12T06:50:58;2.70;99.90
5697;DHT22;2873;50.966;7.210;2023-03-12T06:53:23;2.70;99.90
5697;DHT22;2873;50.966;7.210;2023-03-12T06:55:50;2.70;99.90
5697;DHT22;2873;50.966;7.210;2023-03-12T06:58:16;2.70;99.90
5697;DHT22;2873;50.966;7.210;2023-03-12T07:00:42;2.60;99.90
5697;DHT22;2873;50.966;7.210;2023-03-12T07:03:07;2.60;99.90
5697;DHT22;2873;50.966;7.210;2023-03-12T07:05:33;2.70;99.90
5697;DHT22;2873;50.966;7.210;2023-03-12T07:07:59;2.70;99.90
5697;DHT22;2873;50.966;7.210;2023-03-12T07:10:24;2.80;99.90
5697;DHT22;2873;50.966;7.210;2023-03-12T07:12:54;2.70;99.90
5697;DHT22;2873;50.966;7.210;2023-03-12T07:15:20;2.70;99.90
5697;DHT22;2873;50.966;7.210;2023-03-12T07:17:45;2.70;99.90
5697;DHT22;2873;50.966;7.210;2023-03-12T07:20:12;2.80;99.90
5697;DHT22;2873;50.966;7.210;2023-03-12T07:22:37;2.80;99.90
5697;DHT22;2873;50.966;7.210;2023-03-12T07:25:03;2.80;99.90
5697;DHT22;2873;50.966;7.210;2023-03-12T07:27:29;2.80;99.90
5697;DHT22;2873;50.966;7.210;2023-03-12T07:29:55;2.90;99.90
5697;DHT22;2873;50.966;7.210;2023-03-12T07:32:20;3.00;99.90
5697;DHT22;2873;50.966;7.210;2023-03-12T07:34:46;3.00;99.90
5697;DHT22;2873;50.966;7.210;2023-03-12T07:37:11;3.10;99.90
5697;DHT22;2873;50.966;7.210;2023-03-12T07:39:37;3.20;99.90
5697;DHT22;2873;50.966;7.210;2023-03-12T07:42:03;3.20;99.90
5697;DHT22;2873;50.966;7.210;2023-03-12T07:44:28;3.30;99.90
5697;DHT22;2873;50.966;7.210;2023-03-12T07:46:54;3.40;99.90
5697;DHT22;2873;50.966;7.210;2023-03-12T07:49:19;3.50;99.90
5697;DHT22;2873;50.966;7.210;2023-03-12T07:51:45;3.70;99.90
5697;DHT22;2873;50.966;7.210;2023-03-12T07:54:11;3.70;99.90
5697;DHT22;2873;50.966;7.210;2023-03-12T07:56:37;3.60;99.90
5697;DHT22;2873;50.966;7.210;2023-03-12T07:59:02;3.60;99.90
5697;DHT22;2873;50.966;7.210;2023-03-12T08:01:28;3.60;99.90
5697;DHT22;2873;50.966;7.210;2023-03-12T08:04:00;3.60;99.90
5697;DHT22;2873;50.966;7.210;2023-03-12T08:06:25;3.60;99.90
5697;DHT22;2873;50.966;7.210;2023-03-12T08:08:51;3.70;99.90
5697;DHT22;2873;50.966;7.210;2023-03-12T08:11:17;3.60;99.90
5697;DHT22;2873;50.966;7.210;2023-03-12T08:13:42;3.60;99.90
5697;DHT22;2873;50.966;7.210;2023-03-12T08:16:08;3.40;99.90
5697;DHT22;2873;50.966;7.210;2023-03-12T08:18:33;3.50;99.90
5697;DHT22;2873;50.966;7.210;2023-03-12T08:20:59;3.50;99.90
5697;DHT22;2873;50.966;7.210;2023-03-12T08:23:25;3.50;99.90
5697;DHT22;2873;50.966;7.210;2023-03-12T08:25:51;3.70;99.90
5697;DHT22;2873;50.966;7.210;2023-03-12T08:28:17;3.60;99.90
5697;DHT22;2873;50.966;7.210;2023-03-12T08:30:48;3.50;99.90
5697;DHT22;2873;50.966;7.210;2023-03-12T08:33:14;3.50;99.90
5697;DHT22;2873;50.966;7.210;2023-03-12T08:35:39;3.50;99.90
5697;DHT22;2873;50.966;7.210;2023-03-12T08:38:05;3.60;99.90
5697;DHT22;2873;50.966;7.210;2023-03-12T08:40:30;3.70;99.90
5697;DHT22;2873;50.966;7.210;2023-03-12T08:42:56;3.70;99.90
5697;DHT22;2873;50.966;7.210;2023-03-12T08:45:21;3.70;99.90
5697;DHT22;2873;50.966;7.210;2023-03-12T08:47:47;3.80;99.90
5697;DHT22;2873;50.966;7.210;2023-03-12T08:50:14;3.90;99.90
5697;DHT22;2873;50.966;7.210;2023-03-12T08:52:41;3.90;99.90
5697;DHT22;2873;50.966;7.210;2023-03-12T08:55:07;4.00;99.90
5697;DHT22;2873;50.966;7.210;2023-03-12T08:57:33;4.10;99.90
5697;DHT22;2873;50.966;7.210;2023-03-12T08:59:59;4.20;99.90
5697;DHT22;2873;50.966;7.210;2023-03-12T09:02:24;4.10;99.90
5697;DHT22;2873;50.966;7.210;2023-03-12T09:04:50;4.10;99.90
5697;DHT22;2873;50.966;7.210;2023-03-12T09:07:16;4.20;99.90
5697;DHT22;2873;50.966;7.210;2023-03-12T09:09:43;4.20;99.90
5697;DHT22;2873;50.966;7.210;2023-03-12T09:12:09;4.30;99.90
5697;DHT22;2873;50.966;7.210;2023-03-12T09:14:34;4.40;99.90
5697;DHT22;2873;50.966;7.210;2023-03-12T09:17:00;4.50;99.90
5697;DHT22;2873;50.966;7.210;2023-03-12T09:19:26;4.40;99.90
5697;DHT22;2873;50.966;7.210;2023-03-12T09:21:52;4.30;99.90
5697;DHT22;2873;50.966;7.210;2023-03-12T09:24:17;4.30;99.90
5697;DHT22;2873;50.966;7.210;2023-03-12T09:26:43;4.30;99.90
5697;DHT22;2873;50.966;7.210;2023-03-12T09:29:08;4.30;99.90
5697;DHT22;2873;50.966;7.210;2023-03-12T09:31:34;4.30;99.90
5697;DHT22;2873;50.966;7.210;2023-03-12T09:34:01;4.30;99.90
5697;DHT22;2873;50.966;7.210;2023-03-12T09:36:26;4.30;99.90
5697;DHT22;2873;50.966;7.210;2023-03-12T09:38:53;4.30;99.90
5697;DHT22;2873;50.966;7.210;2023-03-12T09:41:25;4.30;99.90
5697;DHT22;2873;50.966;7.210;2023-03-12T09:43:59;4.40;99.90
5697;DHT22;2873;50.966;7.210;2023-03-12T09:46:40;4.40;99.90
5697;DHT22;2873;50.966;7.210;2023-03-12T09:49:28;4.40;99.90
5697;DHT22;2873;50.966;7.210;2023-03-12T09:51:56;4.50;99.90
5697;DHT22;2873;50.966;7.210;2023-03-12T09:54:45;4.50;99.90
5697;DHT22;2873;50.966;7.210;2023-03-12T09:57:19;4.60;99.90
5697;DHT22;2873;50.966;7.210;2023-03-12T09:59:46;4.80;99.90
5697;DHT22;2873;50.966;7.210;2023-03-12T10:10:53;4.90;99.90
5697;DHT22;2873;50.966;7.210;2023-03-12T10:26:27;5.40;99.90
5697;DHT22;2873;50.966;7.210;2023-03-12T10:29:19;5.50;99.90
5697;DHT22;2873;50.966;7.210;2023-03-12T10:34:22;5.50;99.90
5697;DHT22;2873;50.966;7.210;2023-03-12T10:36:50;5.50;99.90
5697;DHT22;2873;50.966;7.210;2023-03-12T10:39:18;5.60;99.90
5697;DHT22;2873;50.966;7.210;2023-03-12T10:41:45;5.60;99.90
5697;DHT22;2873;50.966;7.210;2023-03-12T10:44:23;5.60;99.90
5697;DHT22;2873;50.966;7.210;2023-03-12T10:46:56;5.60;99.90
5697;DHT22;2873;50.966;7.210;2023-03-12T10:49:33;5.40;99.90
5697;DHT22;2873;50.966;7.210;2023-03-12T10:52:16;5.50;99.90
5697;DHT22;2873;50.966;7.210;2023-03-12T10:54:45;5.70;99.90
5697;DHT22;2873;50.966;7.210;2023-03-12T10:57:12;5.70;99.90
5697;DHT22;2873;50.966;7.210;2023-03-12T10:59:41;5.60;99.90
5697;DHT22;2873;50.966;7.210;2023-03-12T11:02:34;5.80;99.90
5697;DHT22;2873;50.966;7.210;2023-03-12T11:05:24;5.80;99.90
5697;DHT22;2873;50.966;7.210;2023-03-12T11:07:51;6.00;99.90
5697;DHT22;2873;50.966;7.210;2023-03-12T11:15:55;6.30;99.90
5697;DHT22;2873;50.966;7.210;2023-03-12T11:20:55;6.40;99.90
5697;DHT22;2873;50.966;7.210;2023-03-12T11:23:28;6.50;99.90
5697;DHT22;2873;50.966;7.210;2023-03-12T11:26:00;6.50;99.90
5697;DHT22;2873;50.966;7.210;2023-03-12T11:28:35;6.60;99.90
5697;DHT22;2873;50.966;7.210;2023-03-12T11:31:02;6.70;99.90
5697;DHT22;2873;50.966;7.210;2023-03-12T11:33:29;6.70;99.90
5697;DHT22;2873;50.966;7.210;2023-03-12T11:36:38;6.80;99.90
5697;DHT22;2873;50.966;7.210;2023-03-12T11:39:51;6.80;99.90
5697;DHT22;2873;50.966;7.210;2023-03-12T11:42:32;6.90;99.90
5697;DHT22;2873;50.966;7.210;2023-03-12T12:01:49;7.40;99.90
5697;DHT22;2873;50.966;7.210;2023-03-12T12:04:23;7.50;99.90
5697;DHT22;2873;50.966;7.210;2023-03-12T12:10:00;7.90;99.90
5697;DHT22;2873;50.966;7.210;2023-03-12T12:12:50;8.00;99.90
5697;DHT22;2873;50.966;7.210;2023-03-12T12:21:23;8.30;99.90
5697;DHT22;2873;50.966;7.210;2023-03-12T12:24:16;8.30;99.90
5697;DHT22;2873;50.966;7.210;2023-03-12T12:26:53;8.40;99.90
5697;DHT22;2873;50.966;7.210;2023-03-12T12:33:06;8.50;99.90
5697;DHT22;2873;50.966;7.210;2023-03-12T12:38:09;8.80;99.90
5697;DHT22;2873;50.966;7.210;2023-03-12T12:40:41;8.80;99.90
5697;DHT22;2873;50.966;7.210;2023-03-12T12:43:32;9.00;99.90
5697;DHT22;2873;50.966;7.210;2023-03-12T12:46:04;9.00;99.90
5697;DHT22;2873;50.966;7.210;2023-03-12T12:48:43;9.20;99.90
5697;DHT22;2873;50.966;7.210;2023-03-12T12:51:12;9.40;99.90
5697;DHT22;2873;50.966;7.210;2023-03-12T12:56:47;9.80;99.90
5697;DHT22;2873;50.966;7.210;2023-03-12T12:59:37;9.90;99.90
5697;DHT22;2873;50.966;7.210;2023-03-12T13:02:12;10.10;99.90
5697;DHT22;2873;50.966;7.210;2023-03-12T13:04:40;10.30;99.90
5697;DHT22;2873;50.966;7.210;2023-03-12T13:09:40;10.50;99.90
5697;DHT22;2873;50.966;7.210;2023-03-12T13:12:30;10.50;99.90
5697;DHT22;2873;50.966;7.210;2023-03-12T13:14:58;10.60;99.90
5697;DHT22;2873;50.966;7.210;2023-03-12T13:17:35;10.60;99.90
5697;DHT22;2873;50.966;7.210;2023-03-12T13:20:16;10.60;99.90
5697;DHT22;2873;50.966;7.210;2023-03-12T13:30:58;11.30;99.90
5697;DHT22;2873;50.966;7.210;2023-03-12T13:36:26;11.10;99.90
5697;DHT22;2873;50.966;7.210;2023-03-12T13:38:56;11.10;99.90
5697;DHT22;2873;50.966;7.210;2023-03-12T13:43:59;11.10;99.90
5697;DHT22;2873;50.966;7.210;2023-03-12T13:46:45;11.10;99.90
5697;DHT22;2873;50.966;7.210;2023-03-12T13:49:13;11.00;99.90
5697;DHT22;2873;50.966;7.210;2023-03-12T13:51:45;11.20;99.90
5697;DHT22;2873;50.966;7.210;2023-03-12T13:54:16;11.20;99.90
5697;DHT22;2873;50.966;7.210;2023-03-12T13:56:52;11.20;99.90
5697;DHT22;2873;50.966;7.210;2023-03-12T13:59:19;11.30;99.90
5697;DHT22;2873;50.966;7.210;2023-03-12T14:01:51;11.30;99.90
5697;DHT22;2873;50.966;7.210;2023-03-12T14:04:23;11.30;99.90
5697;DHT22;2873;50.966;7.210;2023-03-12T14:12:45;11.50;99.90
5697;DHT22;2873;50.966;7.210;2023-03-12T14:15:32;11.50;99.90
5697;DHT22;2873;50.966;7.210;2023-03-12T14:18:01;11.60;99.90
5697;DHT22;2873;50.966;7.210;2023-03-12T14:20:28;11.60;99.90
5697;DHT22;2873;50.966;7.210;2023-03-12T14:22:59;11.50;99.90
5697;DHT22;2873;50.966;7.210;2023-03-12T14:25:36;11.50;99.90
5697;DHT22;2873;50.966;7.210;2023-03-12T14:28:10;11.50;99.90
5697;DHT22;2873;50.966;7.210;2023-03-12T14:30:41;11.60;99.90
5697;DHT22;2873;50.966;7.210;2023-03-12T14:33:12;11.60;99.90
5697;DHT22;2873;50.966;7.210;2023-03-12T14:35:42;11.70;99.90
5697;DHT22;2873;50.966;7.210;2023-03-12T14:38:29;11.60;99.90
5697;DHT22;2873;50.966;7.210;2023-03-12T14:41:11;11.70;99.90
5697;DHT22;2873;50.966;7.210;2023-03-12T14:43:41;11.60;99.90
5697;DHT22;2873;50.966;7.210;2023-03-12T14:46:16;11.60;99.90
5697;DHT22;2873;50.966;7.210;2023-03-12T14:48:42;11.80;99.90
5697;DHT22;2873;50.966;7.210;2023-03-12T14:51:21;12.00;99.90
5697;DHT22;2873;50.966;7.210;2023-03-12T14:53:48;11.90;99.90
5697;DHT22;2873;50.966;7.210;2023-03-12T14:56:29;11.90;99.90
5697;DHT22;2873;50.966;7.210;2023-03-12T14:58:58;12.10;99.90
5697;DHT22;2873;50.966;7.210;2023-03-12T15:01:32;12.10;99.90
5697;DHT22;2873;50.966;7.210;2023-03-12T15:04:01;12.00;99.90
5697;DHT22;2873;50.966;7.210;2023-03-12T15:06:36;12.10;99.90
5697;DHT22;2873;50.966;7.210;2023-03-12T15:09:04;12.00;99.90
5697;DHT22;2873;50.966;7.210;2023-03-12T15:11:34;11.80;99.90
5697;DHT22;2873;50.966;7.210;2023-03-12T15:14:05;11.90;99.90
5697;DHT22;2873;50.966;7.210;2023-03-12T15:16:32;11.90;99.90
5697;DHT22;2873;50.966;7.210;2023-03-12T15:18:58;12.50;99.90
5697;DHT22;2873;50.966;7.210;2023-03-12T15:21:24;12.40;99.90
5697;DHT22;2873;50.966;7.210;2023-03-12T15:23:50;12.60;99.90
5697;DHT22;2873;50.966;7.210;2023-03-12T15:29:02;12.50;99.90
5697;DHT22;2873;50.966;7.210;2023-03-12T15:31:49;12.50;99.90
5697;DHT22;2873;50.966;7.210;2023-03-12T15:34:34;12.30;99.90
5697;DHT22;2873;50.966;7.210;2023-03-12T15:37:02;12.20;99.90
5697;DHT22;2873;50.966;7.210;2023-03-12T15:39:33;12.20;99.90
5697;DHT22;2873;50.966;7.210;2023-03-12T15:42:00;12.20;99.90
5697;DHT22;2873;50.966;7.210;2023-03-12T15:44:31;12.20;99.90
5697;DHT22;2873;50.966;7.210;2023-03-12T15:47:05;12.20;99.90
5697;DHT22;2873;50.966;7.210;2023-03-12T15:49:35;12.10;99.90
5697;DHT22;2873;50.966;7.210;2023-03-12T15:54:33;12.10;99.90
5697;DHT22;2873;50.966;7.210;2023-03-12T15:57:23;12.10;99.90
5697;DHT22;2873;50.966;7.210;2023-03-12T16:05:12;12.00;99.90
5697;DHT22;2873;50.966;7.210;2023-03-12T16:07:37;12.00;99.90
5697;DHT22;2873;50.966;7.210;2023-03-12T16:10:04;12.00;99.90
5697;DHT22;2873;50.966;7.210;2023-03-12T16:12:31;11.90;99.90
5697;DHT22;2873;50.966;7.210;2023-03-12T16:14:56;11.80;99.90
5697;DHT22;2873;50.966;7.210;2023-03-12T16:17:22;11.70;99.90
5697;DHT22;2873;50.966;7.210;2023-03-12T16:19:48;11.70;99.90
5697;DHT22;2873;50.966;7.210;2023-03-12T16:22:14;11.70;99.90
5697;DHT22;2873;50.966;7.210;2023-03-12T16:24:39;11.80;99.90
5697;DHT22;2873;50.966;7.210;2023-03-12T16:27:05;11.70;99.90
5697;DHT22;2873;50.966;7.210;2023-03-12T16:29:36;11.70;99.90
5697;DHT22;2873;50.966;7.210;2023-03-12T16:32:12;11.70;99.90
5697;DHT22;2873;50.966;7.210;2023-03-12T16:34:38;11.50;99.90
5697;DHT22;2873;50.966;7.210;2023-03-12T16:37:07;11.70;99.90
5697;DHT22;2873;50.966;7.210;2023-03-12T16:39:33;11.70;99.90
5697;DHT22;2873;50.966;7.210;2023-03-12T16:42:00;11.60;99.90
5697;DHT22;2873;50.966;7.210;2023-03-12T16:44:28;11.60;99.90
5697;DHT22;2873;50.966;7.210;2023-03-12T16:46:55;11.60;99.90
5697;DHT22;2873;50.966;7.210;2023-03-12T16:49:20;11.70;99.90
5697;DHT22;2873;50.966;7.210;2023-03-12T16:51:46;11.70;99.90
5697;DHT22;2873;50.966;7.210;2023-03-12T16:54:12;11.60;99.90
5697;DHT22;2873;50.966;7.210;2023-03-12T16:56:41;11.60;99.90
5697;DHT22;2873;50.966;7.210;2023-03-12T16:59:24;11.60;99.90
5697;DHT22;2873;50.966;7.210;2023-03-12T17:01:50;11.60;99.90
5697;DHT22;2873;50.966;7.210;2023-03-12T17:04:16;11.60;99.90
5697;DHT22;2873;50.966;7.210;2023-03-12T17:06:41;11.60;99.90
5697;DHT22;2873;50.966;7.210;2023-03-12T17:09:07;11.60;99.90
5697;DHT22;2873;50.966;7.210;2023-03-12T17:11:33;11.60;99.90
5697;DHT22;2873;50.966;7.210;2023-03-12T17:14:02;11.70;99.90
5697;DHT22;2873;50.966;7.210;2023-03-12T17:16:29;11.60;99.90
5697;DHT22;2873;50.966;7.210;2023-03-12T17:18:55;11.70;99.90
5697;DHT22;2873;50.966;7.210;2023-03-12T17:21:21;11.70;99.90
5697;DHT22;2873;50.966;7.210;2023-03-12T17:23:49;11.60;99.90
5697;DHT22;2873;50.966;7.210;2023-03-12T17:26:16;11.70;99.90
5697;DHT22;2873;50.966;7.210;2023-03-12T17:28:42;11.70;99.90
5697;DHT22;2873;50.966;7.210;2023-03-12T17:31:07;11.70;99.90
5697;DHT22;2873;50.966;7.210;2023-03-12T17:33:33;11.60;99.90
5697;DHT22;2873;50.966;7.210;2023-03-12T17:36:01;11.60;99.90
5697;DHT22;2873;50.966;7.210;2023-03-12T17:38:27;11.60;99.90
5697;DHT22;2873;50.966;7.210;2023-03-12T17:40:54;11.60;99.90
5697;DHT22;2873;50.966;7.210;2023-03-12T17:43:20;11.60;99.90
5697;DHT22;2873;50.966;7.210;2023-03-12T17:45:46;11.50;99.90
5697;DHT22;2873;50.966;7.210;2023-03-12T17:48:12;11.50;99.90
5697;DHT22;2873;50.966;7.210;2023-03-12T17:50:37;11.50;99.90
5697;DHT22;2873;50.966;7.210;2023-03-12T17:53:03;11.50;99.90
5697;DHT22;2873;50.966;7.210;2023-03-12T17:55:29;11.50;99.90
5697;DHT22;2873;50.966;7.210;2023-03-12T17:57:54;11.50;99.90
5697;DHT22;2873;50.966;7.210;2023-03-12T18:00:20;11.40;99.90
5697;DHT22;2873;50.966;7.210;2023-03-12T18:02:47;11.50;99.90
5697;DHT22;2873;50.966;7.210;2023-03-12T18:05:13;11.40;99.90
5697;DHT22;2873;50.966;7.210;2023-03-12T18:07:39;11.50;99.90
5697;DHT22;2873;50.966;7.210;2023-03-12T18:10:07;11.50;99.90